Morningdale, Massachusetts
Current Conditions -  °F | °C
As of 12:54 AM on Saturday 29 Nov 2014 (Local Time) from KORH Reporting Station
Clear Clear  
Wind Chill:   Ceiling: Unl
Heat Index: 17°   Visibility: 10mi
Dew Point: 13°   Wind: 7mph
Humidity: 84%   Direction: 290°WNW
Pressure: 30.16"   Gusts: NA
Location:  42.3502°N, 71.718°W
Report Text: KORH 290554Z AUTO 29006KT 10SM CLR M08/M11 A3016 RMK AO2 SLP230 T10831106 11044 21083 51010
Loading
Personal Weather Stations






























Interactive Weather Map New forecast layout! Learn more

10-Day Weather Forecast

Advertisements
Track Severe Weather on mobile